sensor_id;sensor_type;location;lat;lon;timestamp;P1;durP1;ratioP1;P2;durP2;ratioP2
23642;SDS011;11998;55.788;37.572;2023-08-08T00:00:21;5.45;;;3.17;;
23642;SDS011;11998;55.788;37.572;2023-08-08T00:01:22;5.57;;;3.17;;
23642;SDS011;11998;55.788;37.572;2023-08-08T00:02:22;6.13;;;3.20;;
23642;SDS011;11998;55.788;37.572;2023-08-08T00:03:23;4.85;;;3.00;;
23642;SDS011;11998;55.788;37.572;2023-08-08T00:04:23;4.43;;;3.08;;
23642;SDS011;11998;55.788;37.572;2023-08-08T00:05:24;5.70;;;3.22;;
23642;SDS011;11998;55.788;37.572;2023-08-08T00:06:24;6.25;;;3.25;;
23642;SDS011;11998;55.788;37.572;2023-08-08T00:07:25;9.65;;;3.20;;
23642;SDS011;11998;55.788;37.572;2023-08-08T00:08:30;3.80;;;3.00;;
23642;SDS011;11998;55.788;37.572;2023-08-08T00:09:30;5.07;;;3.47;;
23642;SDS011;11998;55.788;37.572;2023-08-08T00:10:31;3.33;;;3.10;;
23642;SDS011;11998;55.788;37.572;2023-08-08T00:11:31;3.63;;;3.33;;
23642;SDS011;11998;55.788;37.572;2023-08-08T00:12:32;7.50;;;3.10;;
23642;SDS011;11998;55.788;37.572;2023-08-08T00:13:32;4.72;;;3.33;;
23642;SDS011;11998;55.788;37.572;2023-08-08T00:14:33;3.38;;;3.08;;
23642;SDS011;11998;55.788;37.572;2023-08-08T00:15:34;6.28;;;3.35;;
23642;SDS011;11998;55.788;37.572;2023-08-08T00:16:34;4.15;;;3.25;;
23642;SDS011;11998;55.788;37.572;2023-08-08T00:17:35;3.50;;;3.10;;
23642;SDS011;11998;55.788;37.572;2023-08-08T00:18:35;5.13;;;3.25;;
23642;SDS011;11998;55.788;37.572;2023-08-08T00:19:36;6.15;;;3.20;;
23642;SDS011;11998;55.788;37.572;2023-08-08T00:20:36;3.50;;;3.20;;
23642;SDS011;11998;55.788;37.572;2023-08-08T00:21:37;4.10;;;3.22;;
23642;SDS011;11998;55.788;37.572;2023-08-08T00:22:37;5.32;;;3.00;;
23642;SDS011;11998;55.788;37.572;2023-08-08T00:23:38;3.35;;;3.05;;
23642;SDS011;11998;55.788;37.572;2023-08-08T00:24:38;4.13;;;3.08;;
23642;SDS011;11998;55.788;37.572;2023-08-08T00:25:39;3.53;;;2.97;;
23642;SDS011;11998;55.788;37.572;2023-08-08T00:26:39;4.57;;;3.30;;
23642;SDS011;11998;55.788;37.572;2023-08-08T00:27:40;4.30;;;3.20;;
23642;SDS011;11998;55.788;37.572;2023-08-08T00:28:43;5.10;;;3.70;;
23642;SDS011;11998;55.788;37.572;2023-08-08T00:29:44;4.22;;;3.33;;
23642;SDS011;11998;55.788;37.572;2023-08-08T00:30:46;4.00;;;3.10;;
23642;SDS011;11998;55.788;37.572;2023-08-08T00:31:47;3.53;;;3.00;;
23642;SDS011;11998;55.788;37.572;2023-08-08T00:32:47;4.30;;;3.03;;
23642;SDS011;11998;55.788;37.572;2023-08-08T00:33:47;5.70;;;3.35;;
23642;SDS011;11998;55.788;37.572;2023-08-08T00:34:48;3.45;;;3.15;;
23642;SDS011;11998;55.788;37.572;2023-08-08T00:35:48;7.68;;;3.05;;
23642;SDS011;11998;55.788;37.572;2023-08-08T00:36:49;5.85;;;3.13;;
23642;SDS011;11998;55.788;37.572;2023-08-08T00:37:49;4.38;;;3.42;;
23642;SDS011;11998;55.788;37.572;2023-08-08T00:38:50;3.17;;;2.88;;
23642;SDS011;11998;55.788;37.572;2023-08-08T00:39:50;5.75;;;3.30;;
23642;SDS011;11998;55.788;37.572;2023-08-08T00:40:51;4.30;;;3.17;;
23642;SDS011;11998;55.788;37.572;2023-08-08T00:41:51;3.60;;;3.30;;
23642;SDS011;11998;55.788;37.572;2023-08-08T00:42:52;3.97;;;3.17;;
23642;SDS011;11998;55.788;37.572;2023-08-08T00:43:52;3.55;;;3.10;;
23642;SDS011;11998;55.788;37.572;2023-08-08T00:44:53;3.67;;;3.38;;
23642;SDS011;11998;55.788;37.572;2023-08-08T00:45:53;4.35;;;2.95;;
23642;SDS011;11998;55.788;37.572;2023-08-08T00:46:54;7.57;;;3.05;;
23642;SDS011;11998;55.788;37.572;2023-08-08T00:47:55;5.60;;;3.25;;
23642;SDS011;11998;55.788;37.572;2023-08-08T00:48:55;3.97;;;3.17;;
23642;SDS011;11998;55.788;37.572;2023-08-08T00:49:56;5.97;;;3.30;;
23642;SDS011;11998;55.788;37.572;2023-08-08T00:50:57;4.10;;;3.03;;
23642;SDS011;11998;55.788;37.572;2023-08-08T00:51:58;6.70;;;3.20;;
23642;SDS011;11998;55.788;37.572;2023-08-08T00:52:58;4.00;;;3.20;;
23642;SDS011;11998;55.788;37.572;2023-08-08T00:53:59;3.72;;;2.95;;
23642;SDS011;11998;55.788;37.572;2023-08-08T00:55:00;3.67;;;3.20;;
23642;SDS011;11998;55.788;37.572;2023-08-08T00:56:01;5.90;;;3.13;;
23642;SDS011;11998;55.788;37.572;2023-08-08T00:57:02;4.78;;;3.20;;
23642;SDS011;11998;55.788;37.572;2023-08-08T00:58:04;5.53;;;3.33;;
23642;SDS011;11998;55.788;37.572;2023-08-08T00:59:04;8.75;;;3.70;;
23642;SDS011;11998;55.788;37.572;2023-08-08T01:00:07;4.25;;;3.28;;
23642;SDS011;11998;55.788;37.572;2023-08-08T01:01:12;3.17;;;2.80;;
23642;SDS011;11998;55.788;37.572;2023-08-08T01:02:13;3.85;;;3.30;;
23642;SDS011;11998;55.788;37.572;2023-08-08T01:03:13;10.15;;;3.10;;
23642;SDS011;11998;55.788;37.572;2023-08-08T01:04:14;3.47;;;3.17;;
23642;SDS011;11998;55.788;37.572;2023-08-08T01:05:16;3.95;;;3.22;;
23642;SDS011;11998;55.788;37.572;2023-08-08T01:06:23;4.15;;;3.40;;
23642;SDS011;11998;55.788;37.572;2023-08-08T01:08:33;5.68;;;3.20;;
23642;SDS011;11998;55.788;37.572;2023-08-08T01:09:41;2.88;;;2.67;;
23642;SDS011;11998;55.788;37.572;2023-08-08T01:10:50;3.60;;;3.10;;
23642;SDS011;11998;55.788;37.572;2023-08-08T01:11:52;5.25;;;3.00;;
23642;SDS011;11998;55.788;37.572;2023-08-08T01:12:55;3.20;;;2.90;;
23642;SDS011;11998;55.788;37.572;2023-08-08T01:13:59;7.30;;;3.38;;
23642;SDS011;11998;55.788;37.572;2023-08-08T01:15:01;9.20;;;3.67;;
23642;SDS011;11998;55.788;37.572;2023-08-08T01:16:01;3.67;;;3.22;;
23642;SDS011;11998;55.788;37.572;2023-08-08T01:17:05;3.80;;;3.20;;
23642;SDS011;11998;55.788;37.572;2023-08-08T01:18:07;4.40;;;3.20;;
23642;SDS011;11998;55.788;37.572;2023-08-08T01:19:09;5.95;;;2.90;;
23642;SDS011;11998;55.788;37.572;2023-08-08T01:20:15;4.85;;;3.15;;
23642;SDS011;11998;55.788;37.572;2023-08-08T01:21:16;5.45;;;3.38;;
23642;SDS011;11998;55.788;37.572;2023-08-08T01:22:28;3.25;;;2.75;;
23642;SDS011;11998;55.788;37.572;2023-08-08T01:23:52;6.32;;;3.15;;
23642;SDS011;11998;55.788;37.572;2023-08-08T01:24:56;4.82;;;2.85;;
23642;SDS011;11998;55.788;37.572;2023-08-08T01:25:58;4.63;;;3.00;;
23642;SDS011;11998;55.788;37.572;2023-08-08T01:26:59;4.82;;;3.28;;
23642;SDS011;11998;55.788;37.572;2023-08-08T01:28:01;4.78;;;3.22;;
23642;SDS011;11998;55.788;37.572;2023-08-08T01:29:01;4.15;;;3.10;;
23642;SDS011;11998;55.788;37.572;2023-08-08T01:30:02;9.05;;;3.20;;
23642;SDS011;11998;55.788;37.572;2023-08-08T01:31:05;5.63;;;2.88;;
23642;SDS011;11998;55.788;37.572;2023-08-08T01:32:06;6.25;;;3.28;;
23642;SDS011;11998;55.788;37.572;2023-08-08T01:33:09;5.65;;;3.47;;
23642;SDS011;11998;55.788;37.572;2023-08-08T01:34:09;6.22;;;2.80;;
23642;SDS011;11998;55.788;37.572;2023-08-08T01:35:10;3.80;;;3.13;;
23642;SDS011;11998;55.788;37.572;2023-08-08T01:36:15;6.47;;;3.20;;
23642;SDS011;11998;55.788;37.572;2023-08-08T01:38:44;4.40;;;3.22;;
23642;SDS011;11998;55.788;37.572;2023-08-08T01:39:48;7.07;;;3.78;;
23642;SDS011;11998;55.788;37.572;2023-08-08T01:40:50;3.22;;;2.92;;
23642;SDS011;11998;55.788;37.572;2023-08-08T01:41:51;5.22;;;3.08;;
23642;SDS011;11998;55.788;37.572;2023-08-08T01:42:54;6.50;;;3.40;;
23642;SDS011;11998;55.788;37.572;2023-08-08T01:43:55;3.85;;;3.40;;
23642;SDS011;11998;55.788;37.572;2023-08-08T01:44:56;4.47;;;2.83;;
23642;SDS011;11998;55.788;37.572;2023-08-08T01:45:57;5.00;;;2.75;;
23642;SDS011;11998;55.788;37.572;2023-08-08T01:46:59;5.03;;;3.40;;
23642;SDS011;11998;55.788;37.572;2023-08-08T01:47:59;3.55;;;2.80;;
23642;SDS011;11998;55.788;37.572;2023-08-08T01:49:00;5.00;;;3.13;;
23642;SDS011;11998;55.788;37.572;2023-08-08T01:50:00;3.60;;;2.80;;
23642;SDS011;11998;55.788;37.572;2023-08-08T01:51:02;3.58;;;3.05;;
23642;SDS011;11998;55.788;37.572;2023-08-08T01:52:03;3.75;;;3.25;;
23642;SDS011;11998;55.788;37.572;2023-08-08T01:53:05;3.88;;;3.28;;
23642;SDS011;11998;55.788;37.572;2023-08-08T01:54:06;6.38;;;3.15;;
23642;SDS011;11998;55.788;37.572;2023-08-08T01:55:06;4.95;;;3.38;;
23642;SDS011;11998;55.788;37.572;2023-08-08T01:56:07;8.55;;;3.30;;
23642;SDS011;11998;55.788;37.572;2023-08-08T01:57:08;7.45;;;3.53;;
23642;SDS011;11998;55.788;37.572;2023-08-08T01:58:08;6.05;;;3.10;;
23642;SDS011;11998;55.788;37.572;2023-08-08T01:59:09;4.63;;;2.72;;
23642;SDS011;11998;55.788;37.572;2023-08-08T02:00:10;3.25;;;3.00;;
23642;SDS011;11998;55.788;37.572;2023-08-08T02:01:12;4.20;;;3.05;;
23642;SDS011;11998;55.788;37.572;2023-08-08T02:02:12;5.70;;;3.13;;
23642;SDS011;11998;55.788;37.572;2023-08-08T02:03:13;3.97;;;3.08;;
23642;SDS011;11998;55.788;37.572;2023-08-08T02:04:13;4.28;;;2.97;;
23642;SDS011;11998;55.788;37.572;2023-08-08T02:05:14;4.95;;;2.90;;
23642;SDS011;11998;55.788;37.572;2023-08-08T02:06:14;4.30;;;3.05;;
23642;SDS011;11998;55.788;37.572;2023-08-08T02:07:15;5.80;;;2.80;;
23642;SDS011;11998;55.788;37.572;2023-08-08T02:08:16;5.60;;;3.70;;
23642;SDS011;11998;55.788;37.572;2023-08-08T02:09:18;6.35;;;3.25;;
23642;SDS011;11998;55.788;37.572;2023-08-08T02:10:18;4.95;;;3.05;;
23642;SDS011;11998;55.788;37.572;2023-08-08T02:11:19;8.27;;;3.00;;
23642;SDS011;11998;55.788;37.572;2023-08-08T02:12:21;6.10;;;3.38;;
23642;SDS011;11998;55.788;37.572;2023-08-08T02:13:22;3.38;;;2.80;;
23642;SDS011;11998;55.788;37.572;2023-08-08T02:14:23;5.53;;;3.10;;
23642;SDS011;11998;55.788;37.572;2023-08-08T02:15:24;3.63;;;3.00;;
23642;SDS011;11998;55.788;37.572;2023-08-08T02:16:24;7.10;;;3.08;;
23642;SDS011;11998;55.788;37.572;2023-08-08T02:17:25;11.35;;;3.42;;
23642;SDS011;11998;55.788;37.572;2023-08-08T02:18:26;6.75;;;2.97;;
23642;SDS011;11998;55.788;37.572;2023-08-08T02:19:26;5.78;;;3.22;;
23642;SDS011;11998;55.788;37.572;2023-08-08T02:20:27;3.25;;;2.90;;
23642;SDS011;11998;55.788;37.572;2023-08-08T02:21:27;6.07;;;3.25;;
23642;SDS011;11998;55.788;37.572;2023-08-08T02:22:28;6.32;;;3.10;;
23642;SDS011;11998;55.788;37.572;2023-08-08T02:23:28;7.35;;;2.97;;
23642;SDS011;11998;55.788;37.572;2023-08-08T02:24:29;5.97;;;2.88;;
23642;SDS011;11998;55.788;37.572;2023-08-08T02:25:29;4.70;;;3.20;;
23642;SDS011;11998;55.788;37.572;2023-08-08T02:26:30;6.32;;;3.22;;
23642;SDS011;11998;55.788;37.572;2023-08-08T02:27:31;5.90;;;3.05;;
23642;SDS011;11998;55.788;37.572;2023-08-08T02:28:31;3.75;;;3.28;;
23642;SDS011;11998;55.788;37.572;2023-08-08T02:29:32;7.15;;;3.05;;
23642;SDS011;11998;55.788;37.572;2023-08-08T02:30:33;8.10;;;2.97;;
23642;SDS011;11998;55.788;37.572;2023-08-08T02:31:35;3.40;;;3.10;;
23642;SDS011;11998;55.788;37.572;2023-08-08T02:32:35;4.82;;;3.13;;
23642;SDS011;11998;55.788;37.572;2023-08-08T02:33:36;24.23;;;16.60;;
23642;SDS011;11998;55.788;37.572;2023-08-08T02:34:36;13.85;;;12.50;;
23642;SDS011;11998;55.788;37.572;2023-08-08T02:35:38;21.98;;;18.67;;
23642;SDS011;11998;55.788;37.572;2023-08-08T02:36:38;8.35;;;7.43;;
23642;SDS011;11998;55.788;37.572;2023-08-08T02:37:39;3.83;;;3.00;;
23642;SDS011;11998;55.788;37.572;2023-08-08T02:38:39;4.65;;;3.20;;
23642;SDS011;11998;55.788;37.572;2023-08-08T02:39:41;5.95;;;3.22;;
23642;SDS011;11998;55.788;37.572;2023-08-08T02:40:42;4.50;;;3.30;;
23642;SDS011;11998;55.788;37.572;2023-08-08T02:41:43;4.57;;;3.35;;
23642;SDS011;11998;55.788;37.572;2023-08-08T02:42:44;4.68;;;3.20;;
23642;SDS011;11998;55.788;37.572;2023-08-08T02:43:44;7.13;;;2.97;;
23642;SDS011;11998;55.788;37.572;2023-08-08T02:44:45;5.07;;;3.20;;
23642;SDS011;11998;55.788;37.572;2023-08-08T02:45:46;3.53;;;3.10;;
23642;SDS011;11998;55.788;37.572;2023-08-08T02:46:46;6.60;;;3.05;;
23642;SDS011;11998;55.788;37.572;2023-08-08T02:47:47;3.00;;;2.80;;
23642;SDS011;11998;55.788;37.572;2023-08-08T02:48:47;5.55;;;2.80;;
23642;SDS011;11998;55.788;37.572;2023-08-08T02:49:47;5.30;;;3.35;;
23642;SDS011;11998;55.788;37.572;2023-08-08T02:50:48;7.53;;;3.40;;
23642;SDS011;11998;55.788;37.572;2023-08-08T02:51:48;6.10;;;3.05;;
23642;SDS011;11998;55.788;37.572;2023-08-08T02:52:49;3.33;;;3.00;;
23642;SDS011;11998;55.788;37.572;2023-08-08T02:53:49;3.63;;;3.20;;
23642;SDS011;11998;55.788;37.572;2023-08-08T02:54:50;6.50;;;2.97;;
23642;SDS011;11998;55.788;37.572;2023-08-08T02:55:50;4.63;;;3.45;;
23642;SDS011;11998;55.788;37.572;2023-08-08T02:56:51;4.40;;;3.15;;
23642;SDS011;11998;55.788;37.572;2023-08-08T02:57:52;3.88;;;3.22;;
23642;SDS011;11998;55.788;37.572;2023-08-08T02:58:52;7.32;;;2.72;;
23642;SDS011;11998;55.788;37.572;2023-08-08T02:59:53;5.85;;;3.30;;
23642;SDS011;11998;55.788;37.572;2023-08-08T03:00:53;8.30;;;3.08;;
23642;SDS011;11998;55.788;37.572;2023-08-08T03:01:54;3.60;;;3.25;;
23642;SDS011;11998;55.788;37.572;2023-08-08T03:02:54;3.97;;;3.53;;
23642;SDS011;11998;55.788;37.572;2023-08-08T03:03:55;7.35;;;3.38;;
23642;SDS011;11998;55.788;37.572;2023-08-08T03:04:55;5.45;;;3.47;;
23642;SDS011;11998;55.788;37.572;2023-08-08T03:05:56;7.93;;;3.45;;
23642;SDS011;11998;55.788;37.572;2023-08-08T03:06:56;10.00;;;3.40;;
23642;SDS011;11998;55.788;37.572;2023-08-08T03:07:57;6.53;;;3.25;;
23642;SDS011;11998;55.788;37.572;2023-08-08T03:08:57;8.18;;;3.35;;
23642;SDS011;11998;55.788;37.572;2023-08-08T03:09:58;7.07;;;3.35;;
23642;SDS011;11998;55.788;37.572;2023-08-08T03:10:58;4.68;;;2.97;;
23642;SDS011;11998;55.788;37.572;2023-08-08T03:11:59;4.30;;;2.90;;
23642;SDS011;11998;55.788;37.572;2023-08-08T03:12:59;4.60;;;2.95;;
23642;SDS011;11998;55.788;37.572;2023-08-08T03:14:00;5.53;;;3.40;;
23642;SDS011;11998;55.788;37.572;2023-08-08T03:15:00;4.20;;;3.42;;
23642;SDS011;11998;55.788;37.572;2023-08-08T03:16:01;8.25;;;3.65;;
23642;SDS011;11998;55.788;37.572;2023-08-08T03:17:01;4.97;;;3.30;;
23642;SDS011;11998;55.788;37.572;2023-08-08T03:18:02;5.53;;;3.20;;
23642;SDS011;11998;55.788;37.572;2023-08-08T03:19:03;5.38;;;3.42;;
23642;SDS011;11998;55.788;37.572;2023-08-08T03:20:04;10.38;;;3.50;;
23642;SDS011;11998;55.788;37.572;2023-08-08T03:21:06;7.75;;;3.50;;
23642;SDS011;11998;55.788;37.572;2023-08-08T03:22:07;8.02;;;3.30;;
23642;SDS011;11998;55.788;37.572;2023-08-08T03:23:07;4.95;;;3.58;;
23642;SDS011;11998;55.788;37.572;2023-08-08T03:24:08;6.90;;;3.88;;
23642;SDS011;11998;55.788;37.572;2023-08-08T03:25:08;6.60;;;3.63;;
23642;SDS011;11998;55.788;37.572;2023-08-08T03:26:10;6.05;;;3.65;;
23642;SDS011;11998;55.788;37.572;2023-08-08T03:27:10;5.47;;;3.55;;
23642;SDS011;11998;55.788;37.572;2023-08-08T03:28:11;5.78;;;3.67;;
23642;SDS011;11998;55.788;37.572;2023-08-08T03:29:11;5.57;;;3.42;;
23642;SDS011;11998;55.788;37.572;2023-08-08T03:30:13;8.20;;;3.58;;
23642;SDS011;11998;55.788;37.572;2023-08-08T03:31:13;5.97;;;3.45;;
23642;SDS011;11998;55.788;37.572;2023-08-08T03:32:14;8.13;;;3.55;;
23642;SDS011;11998;55.788;37.572;2023-08-08T03:33:15;8.30;;;3.78;;
23642;SDS011;11998;55.788;37.572;2023-08-08T03:34:15;5.20;;;3.58;;
23642;SDS011;11998;55.788;37.572;2023-08-08T03:35:16;6.25;;;3.42;;
23642;SDS011;11998;55.788;37.572;2023-08-08T03:36:16;4.38;;;3.45;;
23642;SDS011;11998;55.788;37.572;2023-08-08T03:37:17;8.23;;;3.42;;
23642;SDS011;11998;55.788;37.572;2023-08-08T03:38:17;7.25;;;3.75;;
23642;SDS011;11998;55.788;37.572;2023-08-08T03:39:18;5.15;;;3.45;;
23642;SDS011;11998;55.788;37.572;2023-08-08T03:40:18;7.10;;;3.90;;
23642;SDS011;11998;55.788;37.572;2023-08-08T03:41:19;8.02;;;3.63;;
23642;SDS011;11998;55.788;37.572;2023-08-08T03:42:19;6.28;;;3.53;;
23642;SDS011;11998;55.788;37.572;2023-08-08T03:43:20;11.63;;;3.67;;
23642;SDS011;11998;55.788;37.572;2023-08-08T03:44:20;5.93;;;3.50;;
23642;SDS011;11998;55.788;37.572;2023-08-08T03:45:21;6.38;;;3.83;;
23642;SDS011;11998;55.788;37.572;2023-08-08T03:46:21;8.50;;;3.90;;
23642;SDS011;11998;55.788;37.572;2023-08-08T03:47:22;4.72;;;4.00;;
23642;SDS011;11998;55.788;37.572;2023-08-08T03:48:23;6.32;;;3.70;;
23642;SDS011;11998;55.788;37.572;2023-08-08T03:49:23;5.18;;;3.33;;
23642;SDS011;11998;55.788;37.572;2023-08-08T03:50:24;9.32;;;4.07;;
23642;SDS011;11998;55.788;37.572;2023-08-08T03:51:24;9.60;;;3.80;;
23642;SDS011;11998;55.788;37.572;2023-08-08T03:52:25;12.38;;;3.75;;
23642;SDS011;11998;55.788;37.572;2023-08-08T03:53:25;7.47;;;3.47;;
23642;SDS011;11998;55.788;37.572;2023-08-08T03:54:26;6.00;;;3.50;;
23642;SDS011;11998;55.788;37.572;2023-08-08T03:55:27;6.95;;;3.63;;
23642;SDS011;11998;55.788;37.572;2023-08-08T03:56:27;9.30;;;3.60;;
23642;SDS011;11998;55.788;37.572;2023-08-08T03:57:28;9.73;;;3.25;;
23642;SDS011;11998;55.788;37.572;2023-08-08T03:58:28;7.75;;;3.95;;
23642;SDS011;11998;55.788;37.572;2023-08-08T03:59:29;7.25;;;3.92;;
23642;SDS011;11998;55.788;37.572;2023-08-08T04:00:29;4.25;;;3.05;;
23642;SDS011;11998;55.788;37.572;2023-08-08T04:01:30;8.70;;;3.67;;
23642;SDS011;11998;55.788;37.572;2023-08-08T04:02:30;4.30;;;3.30;;
23642;SDS011;11998;55.788;37.572;2023-08-08T04:03:31;8.52;;;3.20;;
23642;SDS011;11998;55.788;37.572;2023-08-08T04:04:31;5.03;;;3.88;;
23642;SDS011;11998;55.788;37.572;2023-08-08T04:05:32;4.13;;;3.40;;
23642;SDS011;11998;55.788;37.572;2023-08-08T04:06:32;4.40;;;3.85;;
23642;SDS011;11998;55.788;37.572;2023-08-08T04:07:33;5.35;;;3.67;;
23642;SDS011;11998;55.788;37.572;2023-08-08T04:08:33;6.22;;;3.60;;
23642;SDS011;11998;55.788;37.572;2023-08-08T04:09:34;8.45;;;3.78;;
23642;SDS011;11998;55.788;37.572;2023-08-08T04:10:34;6.40;;;3.55;;
23642;SDS011;11998;55.788;37.572;2023-08-08T04:11:35;6.82;;;3.20;;
23642;SDS011;11998;55.788;37.572;2023-08-08T04:12:35;5.07;;;3.30;;
23642;SDS011;11998;55.788;37.572;2023-08-08T04:13:36;5.18;;;3.60;;
23642;SDS011;11998;55.788;37.572;2023-08-08T04:14:37;5.72;;;3.20;;
23642;SDS011;11998;55.788;37.572;2023-08-08T04:15:37;5.97;;;3.60;;
23642;SDS011;11998;55.788;37.572;2023-08-08T04:16:38;9.50;;;3.42;;
23642;SDS011;11998;55.788;37.572;2023-08-08T04:17:39;8.45;;;3.70;;
23642;SDS011;11998;55.788;37.572;2023-08-08T04:18:40;9.75;;;3.92;;
23642;SDS011;11998;55.788;37.572;2023-08-08T04:19:40;11.07;;;3.67;;
23642;SDS011;11998;55.788;37.572;2023-08-08T04:20:41;10.40;;;3.85;;
23642;SDS011;11998;55.788;37.572;2023-08-08T04:21:41;12.88;;;3.92;;
23642;SDS011;11998;55.788;37.572;2023-08-08T04:22:42;5.68;;;3.72;;
23642;SDS011;11998;55.788;37.572;2023-08-08T04:23:42;7.03;;;3.70;;
23642;SDS011;11998;55.788;37.572;2023-08-08T04:24:43;6.70;;;3.78;;
23642;SDS011;11998;55.788;37.572;2023-08-08T04:25:44;4.72;;;3.25;;
23642;SDS011;11998;55.788;37.572;2023-08-08T04:26:44;6.38;;;3.60;;
23642;SDS011;11998;55.788;37.572;2023-08-08T04:27:45;11.20;;;3.50;;
23642;SDS011;11998;55.788;37.572;2023-08-08T04:28:45;4.93;;;3.35;;
23642;SDS011;11998;55.788;37.572;2023-08-08T04:29:47;4.78;;;3.60;;
23642;SDS011;11998;55.788;37.572;2023-08-08T04:30:47;8.35;;;3.38;;
23642;SDS011;11998;55.788;37.572;2023-08-08T04:31:48;4.20;;;3.30;;
23642;SDS011;11998;55.788;37.572;2023-08-08T04:32:49;6.18;;;3.13;;
23642;SDS011;11998;55.788;37.572;2023-08-08T04:33:49;5.25;;;3.65;;
23642;SDS011;11998;55.788;37.572;2023-08-08T04:34:50;5.88;;;3.80;;
23642;SDS011;11998;55.788;37.572;2023-08-08T04:35:51;8.32;;;3.85;;
23642;SDS011;11998;55.788;37.572;2023-08-08T04:36:51;3.97;;;3.58;;
23642;SDS011;11998;55.788;37.572;2023-08-08T04:37:52;6.40;;;3.25;;
23642;SDS011;11998;55.788;37.572;2023-08-08T04:38:52;5.63;;;3.92;;
23642;SDS011;11998;55.788;37.572;2023-08-08T04:39:53;3.95;;;3.58;;
23642;SDS011;11998;55.788;37.572;2023-08-08T04:40:53;5.40;;;3.47;;
23642;SDS011;11998;55.788;37.572;2023-08-08T04:41:54;4.93;;;3.58;;
23642;SDS011;11998;55.788;37.572;2023-08-08T04:42:54;8.45;;;3.72;;
23642;SDS011;11998;55.788;37.572;2023-08-08T04:43:55;6.93;;;3.72;;
23642;SDS011;11998;55.788;37.572;2023-08-08T04:44:55;4.80;;;3.60;;
23642;SDS011;11998;55.788;37.572;2023-08-08T04:45:56;6.57;;;3.85;;
23642;SDS011;11998;55.788;37.572;2023-08-08T04:46:57;7.43;;;4.07;;
23642;SDS011;11998;55.788;37.572;2023-08-08T04:47:57;5.25;;;3.72;;
23642;SDS011;11998;55.788;37.572;2023-08-08T04:48:58;7.28;;;3.63;;
23642;SDS011;11998;55.788;37.572;2023-08-08T04:49:58;6.20;;;3.53;;
23642;SDS011;11998;55.788;37.572;2023-08-08T04:50:59;6.25;;;3.30;;
23642;SDS011;11998;55.788;37.572;2023-08-08T04:51:59;9.07;;;3.55;;
23642;SDS011;11998;55.788;37.572;2023-08-08T04:53:00;6.50;;;3.88;;
23642;SDS011;11998;55.788;37.572;2023-08-08T04:54:00;4.38;;;3.85;;
23642;SDS011;11998;55.788;37.572;2023-08-08T04:55:01;7.15;;;3.40;;
23642;SDS011;11998;55.788;37.572;2023-08-08T04:56:01;5.68;;;3.83;;
23642;SDS011;11998;55.788;37.572;2023-08-08T04:57:02;6.18;;;3.88;;
23642;SDS011;11998;55.788;37.572;2023-08-08T04:58:03;8.80;;;4.00;;
23642;SDS011;11998;55.788;37.572;2023-08-08T04:59:03;4.30;;;3.75;;
23642;SDS011;11998;55.788;37.572;2023-08-08T05:00:04;4.32;;;3.65;;
23642;SDS011;11998;55.788;37.572;2023-08-08T05:01:08;6.20;;;3.65;;
23642;SDS011;11998;55.788;37.572;2023-08-08T05:02:11;5.25;;;4.20;;
23642;SDS011;11998;55.788;37.572;2023-08-08T05:03:12;4.63;;;3.70;;
23642;SDS011;11998;55.788;37.572;2023-08-08T05:04:13;7.88;;;3.97;;
23642;SDS011;11998;55.788;37.572;2023-08-08T05:05:13;5.22;;;3.70;;
23642;SDS011;11998;55.788;37.572;2023-08-08T05:06:14;5.82;;;4.10;;
23642;SDS011;11998;55.788;37.572;2023-08-08T05:07:14;6.55;;;3.85;;
23642;SDS011;11998;55.788;37.572;2023-08-08T05:08:16;5.45;;;4.05;;
23642;SDS011;11998;55.788;37.572;2023-08-08T05:09:16;5.28;;;3.97;;
23642;SDS011;11998;55.788;37.572;2023-08-08T05:10:17;4.70;;;4.00;;
23642;SDS011;11998;55.788;37.572;2023-08-08T05:11:18;8.25;;;4.30;;
23642;SDS011;11998;55.788;37.572;2023-08-08T05:12:18;7.88;;;4.18;;
23642;SDS011;11998;55.788;37.572;2023-08-08T05:13:19;5.13;;;3.72;;
23642;SDS011;11998;55.788;37.572;2023-08-08T05:14:19;9.68;;;4.18;;
23642;SDS011;11998;55.788;37.572;2023-08-08T05:15:20;6.95;;;4.10;;
23642;SDS011;11998;55.788;37.572;2023-08-08T05:16:20;5.78;;;3.90;;
23642;SDS011;11998;55.788;37.572;2023-08-08T05:17:22;4.68;;;4.10;;
23642;SDS011;11998;55.788;37.572;2023-08-08T05:18:23;10.32;;;4.47;;
23642;SDS011;11998;55.788;37.572;2023-08-08T05:19:23;9.57;;;3.85;;
23642;SDS011;11998;55.788;37.572;2023-08-08T05:20:25;6.03;;;4.18;;
23642;SDS011;11998;55.788;37.572;2023-08-08T05:21:25;8.05;;;4.13;;
23642;SDS011;11998;55.788;37.572;2023-08-08T05:22:26;8.35;;;4.43;;
23642;SDS011;11998;55.788;37.572;2023-08-08T05:23:26;6.18;;;4.18;;
23642;SDS011;11998;55.788;37.572;2023-08-08T05:24:27;8.02;;;4.53;;
23642;SDS011;11998;55.788;37.572;2023-08-08T05:25:27;9.60;;;4.25;;
23642;SDS011;11998;55.788;37.572;2023-08-08T05:26:28;7.45;;;3.75;;
23642;SDS011;11998;55.788;37.572;2023-08-08T05:27:28;7.07;;;4.20;;
23642;SDS011;11998;55.788;37.572;2023-08-08T05:28:29;17.00;;;5.45;;
23642;SDS011;11998;55.788;37.572;2023-08-08T05:29:29;6.32;;;4.00;;
23642;SDS011;11998;55.788;37.572;2023-08-08T05:30:30;4.75;;;3.80;;
23642;SDS011;11998;55.788;37.572;2023-08-08T05:31:30;7.95;;;4.25;;
23642;SDS011;11998;55.788;37.572;2023-08-08T05:32:31;8.95;;;4.45;;
23642;SDS011;11998;55.788;37.572;2023-08-08T05:33:32;5.30;;;4.15;;
23642;SDS011;11998;55.788;37.572;2023-08-08T05:34:33;4.88;;;4.32;;
23642;SDS011;11998;55.788;37.572;2023-08-08T05:35:34;7.07;;;4.63;;
23642;SDS011;11998;55.788;37.572;2023-08-08T05:36:35;15.80;;;4.53;;
23642;SDS011;11998;55.788;37.572;2023-08-08T05:37:35;5.10;;;4.32;;
23642;SDS011;11998;55.788;37.572;2023-08-08T05:38:36;11.18;;;4.55;;
23642;SDS011;11998;55.788;37.572;2023-08-08T05:39:37;7.88;;;4.43;;
23642;SDS011;11998;55.788;37.572;2023-08-08T05:40:37;7.40;;;4.38;;
23642;SDS011;11998;55.788;37.572;2023-08-08T05:41:38;7.95;;;4.25;;
23642;SDS011;11998;55.788;37.572;2023-08-08T05:42:38;7.65;;;4.25;;
23642;SDS011;11998;55.788;37.572;2023-08-08T05:43:39;7.85;;;4.38;;
23642;SDS011;11998;55.788;37.572;2023-08-08T05:44:39;4.45;;;4.00;;
23642;SDS011;11998;55.788;37.572;2023-08-08T05:45:43;9.70;;;4.88;;
23642;SDS011;11998;55.788;37.572;2023-08-08T05:46:45;5.53;;;4.88;;
23642;SDS011;11998;55.788;37.572;2023-08-08T05:47:45;7.93;;;4.45;;
23642;SDS011;11998;55.788;37.572;2023-08-08T05:48:46;7.65;;;4.50;;
23642;SDS011;11998;55.788;37.572;2023-08-08T05:49:46;10.63;;;5.07;;
23642;SDS011;11998;55.788;37.572;2023-08-08T05:50:47;4.82;;;4.22;;
23642;SDS011;11998;55.788;37.572;2023-08-08T05:51:47;7.47;;;4.32;;
23642;SDS011;11998;55.788;37.572;2023-08-08T05:52:48;4.57;;;4.07;;
23642;SDS011;11998;55.788;37.572;2023-08-08T05:53:48;6.45;;;4.63;;
23642;SDS011;11998;55.788;37.572;2023-08-08T05:54:49;9.82;;;4.55;;
23642;SDS011;11998;55.788;37.572;2023-08-08T05:55:49;9.52;;;4.00;;
23642;SDS011;11998;55.788;37.572;2023-08-08T05:56:50;6.78;;;4.40;;
23642;SDS011;11998;55.788;37.572;2023-08-08T05:57:50;6.40;;;4.65;;
23642;SDS011;11998;55.788;37.572;2023-08-08T05:58:51;8.20;;;4.57;;
23642;SDS011;11998;55.788;37.572;2023-08-08T05:59:52;8.05;;;4.50;;
23642;SDS011;11998;55.788;37.572;2023-08-08T06:00:52;8.85;;;4.68;;
23642;SDS011;11998;55.788;37.572;2023-08-08T06:01:53;9.82;;;4.80;;
23642;SDS011;11998;55.788;37.572;2023-08-08T06:02:54;6.95;;;4.28;;
23642;SDS011;11998;55.788;37.572;2023-08-08T06:03:54;13.10;;;4.47;;